KHST

Homestead ARB Airport

Homestead, Florida, USA
TAF KHST 230800Z 2308/2414 13009KT 9999 SCT010 BKN020 QNH2995INS BECMG 2317/2318 14009KT 9999 VCSH SCT010 BKN020 QNH2994INS TEMPO 2318/2322 14012G20KT 4800 -TSRA BKN015 OVC025CB BECMG 2323/2324 15009KT 9999 NSW FEW010 QNH2993INS BECMG 2405/2406 16009KT 9999 BKN020 QNH2996INS TX28/2317Z TN21/2408Z
Issued Valid From Valid To
Apr-23 @ 08:00 UTC
(2 hours ago)
Apr-23 @ 08:00 UTC
(2 hours ago)
Apr-24 @ 14:00 UTC
(-1 days ago)
Apr-23 @ 08:00 to Apr-23 @ 17:00
TAF KHST 230800Z 2308/2414 13009KT 9999 SCT010 BKN020 QNH2995INS
Wind Visibility Clouds Readings
130° at 9 knots Greater than 6 miles
  • Scattered at 1,000' AGL
  • Broken at 2,000' AGL
Altimeter 29.94" Hg
Pressure 1014 hPa
Becoming Apr-23 @ 17:00 to Apr-23 @ 23:00
BECMG 2317/2318 14009KT 9999 VCSH SCT010 BKN020 QNH2994INS
Wind Visibility Clouds Readings
140° at 9 knots Greater than 6 miles
  • Scattered at 1,000' AGL
  • Broken at 2,000' AGL
Altimeter 29.94" Hg
Pressure 1014 hPa
Temporary Apr-23 @ 18:00 to Apr-23 @ 22:00
TEMPO 2318/2322 14012G20KT 4800 -TSRA BKN015 OVC025CB
Wind Visibility Clouds Conditions
140° at 12 knots
 Gusting to 20 knots
21/98 miles
  • Broken at 1,500' AGL
  • Overcast at 2,500' AGL
  • Light Thunderstorm
  • Light Rain
Becoming Apr-23 @ 23:00 to Apr-24 @ 05:00
BECMG 2323/2324 15009KT 9999 NSW FEW010 QNH2993INS
Wind Visibility Clouds Conditions Readings
150° at 9 knots Greater than 6 miles
  • Few at 1,000' AGL
Altimeter 29.94" Hg
Pressure 1014 hPa
Becoming Apr-24 @ 05:00 to Apr-24 @ 14:00
BECMG 2405/2406 16009KT 9999 BKN020 QNH2996INS TX28/2317Z TN21/2408Z
Wind Visibility Clouds Conditions Readings
160° at 9 knots Greater than 6 miles
  • Broken at 2,000' AGL
Altimeter 29.97" Hg
Pressure 1015 hPa
TAF KHST 230800Z 2308/2414 13009KT 9999 SCT010 BKN020 QNH2995INS BECMG 2317/2318 14009KT 9999 VCSH SCT010 BKN020 QNH2994INS TEMPO 2318/2322 14012G20KT 4800 -TSRA BKN015 OVC025CB BECMG 2323/2324 15009KT 9999 NSW FEW010 QNH2993INS BECMG 2405/2406 16009KT 9999 BKN020 QNH2996INS TX28/2317Z TN21/2408Z
Issued Apr-23 @ 08:00 UTC
(2 hours ago)
Valid From Apr-23 @ 08:00 UTC
(2 hours ago)
Valid To Apr-24 @ 14:00 UTC
(-1 days ago)
Apr-23 @ 08:00 - Apr-23 @ 17:00
Wind Visibility
130° at 9 knots Greater than 6 miles
Clouds
  • Scattered at 1,000' AGL
  • Broken at 2,000' AGL
Becoming Apr-23 @ 17:00 - Apr-23 @ 23:00
Wind Visibility
140° at 9 knots Greater than 6 miles
Clouds
  • Scattered at 1,000' AGL
  • Broken at 2,000' AGL
Temporary Apr-23 @ 18:00 - Apr-23 @ 22:00
Wind Visibility
140° at 12 knots
 Gusting to 20 knots
21/98 miles
Clouds
  • Broken at 1,500' AGL
  • Overcast at 2,500' AGL
Conditions
  • Light Thunderstorm
  • Light Rain
Becoming Apr-23 @ 23:00 - Apr-24 @ 05:00
Wind Visibility
150° at 9 knots Greater than 6 miles
Clouds
  • Few at 1,000' AGL
Conditions
Becoming Apr-24 @ 05:00 - Apr-24 @ 14:00
Wind Visibility
160° at 9 knots Greater than 6 miles
Clouds
  • Broken at 2,000' AGL
Conditions